Time;durP1;ratioP1;P1;durP2;ratioP2;P2;SDS_P1;SDS_P2;PMS_P1;PMS_P2;Temp;Humidity;BMP_temperature;BMP_pressure;BME280_temperature;BME280_humidity;BME280_pressure;Samples;Min_cycle;Max_cycle;Signal;HPM_P1;HPM_P2
2021/05/22 00:00:25;;;;;;;0.73;0.50;;;11.80;77.70;;;;;;5073814;28;20062;-77
2021/05/22 00:02:51;;;;;;;0.57;0.50;;;11.80;77.80;;;;;;5073866;28;20104;-75
2021/05/22 00:05:16;;;;;;;0.30;0.30;;;11.80;77.80;;;;;;5073828;28;20377;-76
2021/05/22 00:07:42;;;;;;;1.08;0.68;;;11.80;77.80;;;;;;5073805;28;20051;-77
2021/05/22 00:10:10;;;;;;;1.60;0.80;;;11.80;77.80;;;;;;5072996;28;20054;-77
2021/05/22 00:12:40;;;;;;;0.60;0.47;;;11.80;77.90;;;;;;5073980;28;20031;-78
2021/05/22 00:15:07;;;;;;;1.35;0.55;;;11.80;77.90;;;;;;5073949;28;20016;-74
2021/05/22 00:17:33;;;;;;;0.60;0.30;;;11.80;77.90;;;;;;5055810;28;20507;-76
2021/05/22 00:19:59;;;;;;;0.93;0.55;;;11.70;78.00;;;;;;5073401;28;20067;-77
2021/05/22 00:22:25;;;;;;;1.35;1.25;;;11.70;78.10;;;;;;5072946;28;20035;-76
2021/05/22 00:24:51;;;;;;;0.50;0.50;;;11.70;78.10;;;;;;5055755;28;20028;-76
2021/05/22 00:27:16;;;;;;;0.50;0.50;;;11.70;78.10;;;;;;5073512;28;20071;-76
2021/05/22 00:29:42;;;;;;;0.85;0.50;;;11.70;78.00;;;;;;5073390;28;20103;-77
2021/05/22 00:32:07;;;;;;;1.85;0.63;;;11.70;78.00;;;;;;5073530;28;20392;-75
2021/05/22 00:34:33;;;;;;;0.47;0.40;;;11.70;78.10;;;;;;5073292;28;20100;-75
2021/05/22 00:36:58;;;;;;;2.72;0.90;;;11.70;78.00;;;;;;5072696;28;20500;-77
2021/05/22 00:39:24;;;;;;;0.80;0.60;;;11.70;77.80;;;;;;5055350;28;20464;-77
2021/05/22 00:41:49;;;;;;;1.08;0.82;;;11.70;77.90;;;;;;5073227;28;20036;-76
2021/05/22 00:44:15;;;;;;;1.25;0.60;;;11.70;78.00;;;;;;5073072;28;20052;-77
2021/05/22 00:46:43;;;;;;;2.03;0.60;;;11.70;77.80;;;;;;5073188;28;20024;-77
2021/05/22 00:49:09;;;;;;;3.50;0.85;;;11.80;77.90;;;;;;5073407;28;20492;-76
2021/05/22 00:51:34;;;;;;;1.20;0.70;;;11.70;77.70;;;;;;5072684;28;20063;-78
2021/05/22 00:54:00;;;;;;;1.20;0.50;;;11.70;77.70;;;;;;5055129;28;20120;-77
2021/05/22 00:56:26;;;;;;;0.73;0.73;;;11.80;77.80;;;;;;5073426;28;20056;-76
2021/05/22 00:58:51;;;;;;;1.58;1.10;;;11.80;77.70;;;;;;5073068;28;20035;-78
2021/05/22 01:01:17;;;;;;;0.75;0.60;;;11.80;77.80;;;;;;5076550;28;20544;-75
2021/05/22 01:03:45;;;;;;;2.22;0.57;;;11.70;77.60;;;;;;5077224;28;20036;-76
2021/05/22 01:06:15;;;;;;;1.50;0.60;;;11.70;77.70;;;;;;5076728;28;20414;-76
2021/05/22 01:08:48;;;;;;;2.33;0.70;;;11.70;77.70;;;;;;5077157;28;20020;-75
2021/05/22 01:11:18;;;;;;;1.58;0.80;;;11.80;77.70;;;;;;5077166;28;20426;-76
2021/05/22 01:13:52;;;;;;;0.90;0.60;;;11.70;77.60;;;;;;5076905;28;20457;-74
2021/05/22 01:16:20;;;;;;;2.10;0.63;;;11.80;77.70;;;;;;5076953;28;20035;-76
2021/05/22 01:18:46;;;;;;;0.98;0.47;;;11.70;77.60;;;;;;5076918;28;20031;-76
2021/05/22 01:21:13;;;;;;;0.43;0.40;;;11.70;77.80;;;;;;5076415;28;20040;-79
2021/05/22 01:23:47;;;;;;;3.08;0.90;;;11.70;77.60;;;;;;5077073;28;20024;-76
2021/05/22 01:26:13;;;;;;;0.45;0.35;;;11.70;77.60;;;;;;5076863;28;20104;-75
2021/05/22 01:28:40;;;;;;;0.68;0.50;;;11.70;77.70;;;;;;5076696;28;20016;-77
2021/05/22 01:31:07;;;;;;;1.60;0.90;;;11.70;77.70;;;;;;5076717;28;20017;-76
2021/05/22 01:33:34;;;;;;;2.85;0.95;;;11.70;77.60;;;;;;5076643;28;20035;-74
2021/05/22 01:36:00;;;;;;;0.95;0.47;;;11.70;77.60;;;;;;5076141;28;20110;-77
2021/05/22 01:38:25;;;;;;;0.73;0.60;;;11.70;77.50;;;;;;5070493;28;20464;-75
2021/05/22 01:40:50;;;;;;;1.90;0.65;;;11.70;77.60;;;;;;5056266;28;20041;-78
2021/05/22 01:43:19;;;;;;;0.40;0.40;;;11.70;77.60;;;;;;5056759;28;20014;-75
2021/05/22 01:45:47;;;;;;;1.23;0.63;;;11.70;77.60;;;;;;5056465;28;20017;-75
2021/05/22 01:48:20;;;;;;;0.60;0.50;;;11.70;77.60;;;;;;5056263;28;20057;-76
2021/05/22 01:50:49;;;;;;;0.43;0.32;;;11.70;77.60;;;;;;5055989;28;20037;-77
2021/05/22 01:53:17;;;;;;;0.95;0.90;;;11.70;77.60;;;;;;5056398;28;20021;-76
2021/05/22 01:55:46;;;;;;;0.47;0.35;;;11.60;77.60;;;;;;5056336;28;20025;-76
2021/05/22 01:58:15;;;;;;;2.13;0.87;;;11.60;77.50;;;;;;5056191;28;20116;-76
2021/05/22 02:00:43;;;;;;;0.83;0.77;;;11.60;77.50;;;;;;5056167;28;20068;-77
2021/05/22 02:03:17;;;;;;;1.02;0.60;;;11.60;77.50;;;;;;5038093;28;20332;-78
2021/05/22 02:05:46;;;;;;;1.75;0.57;;;11.60;77.50;;;;;;5055780;28;20032;-78
2021/05/22 02:08:19;;;;;;;0.50;0.50;;;11.60;77.60;;;;;;5038307;28;20023;-76
2021/05/22 02:10:47;;;;;;;0.85;0.50;;;11.60;77.50;;;;;;5055847;28;20362;-75
2021/05/22 02:13:13;;;;;;;0.60;0.55;;;11.60;77.50;;;;;;5055980;28;20028;-77
2021/05/22 02:15:40;;;;;;;0.85;0.70;;;11.60;77.50;;;;;;5056056;28;20329;-76
2021/05/22 02:18:09;;;;;;;0.65;0.55;;;11.60;77.60;;;;;;5055948;28;20493;-76
2021/05/22 02:20:35;;;;;;;1.10;0.80;;;11.60;77.60;;;;;;5056345;28;20033;-75
2021/05/22 02:23:03;;;;;;;1.48;0.73;;;11.60;77.60;;;;;;5057430;28;20021;-75
2021/05/22 02:25:28;;;;;;;1.08;0.55;;;11.60;77.50;;;;;;5038192;28;20385;-78
2021/05/22 02:27:58;;;;;;;0.80;0.50;;;11.60;77.50;;;;;;5055837;28;20100;-76
2021/05/22 02:30:25;;;;;;;;;;;11.60;77.50;;;;;;5056185;28;20021;-76
2021/05/22 02:32:51;;;;;;;0.47;0.45;;;11.50;77.60;;;;;;5054977;28;19909;-75
2021/05/22 02:35:19;;;;;;;0.50;0.50;;;11.50;77.80;;;;;;5055678;28;20487;-77
2021/05/22 02:37:48;;;;;;;0.40;0.38;;;11.50;77.80;;;;;;5037463;28;20041;-77
2021/05/22 02:40:19;;;;;;;;;;;11.50;77.80;;;;;;5055936;28;20126;-76
2021/05/22 02:42:53;;;;;;;0.40;0.40;;;11.40;77.90;;;;;;5055406;28;19905;-77
2021/05/22 02:45:19;;;;;;;0.57;0.50;;;11.40;78.00;;;;;;5055573;28;20119;-73
2021/05/22 02:47:47;;;;;;;1.55;0.40;;;11.40;77.90;;;;;;5036896;28;20028;-76
2021/05/22 02:50:14;;;;;;;0.88;0.50;;;11.40;77.80;;;;;;5055207;28;20043;-78
2021/05/22 02:52:41;;;;;;;0.65;0.50;;;11.50;77.90;;;;;;5055186;28;20044;-75
2021/05/22 02:55:09;;;;;;;1.02;0.68;;;11.50;77.90;;;;;;5055208;28;20032;-77
2021/05/22 02:57:35;;;;;;;0.43;0.43;;;11.50;77.90;;;;;;5055161;28;20083;-76
2021/05/22 03:00:03;;;;;;;0.82;0.50;;;11.50;77.90;;;;;;5055077;28;20032;-76
2021/05/22 03:02:29;;;;;;;3.53;0.63;;;11.40;77.80;;;;;;5054385;28;20504;-77
2021/05/22 03:04:56;;;;;;;0.82;0.50;;;11.50;77.90;;;;;;5055012;28;20389;-77
2021/05/22 03:07:21;;;;;;;1.15;0.70;;;11.50;77.80;;;;;;5055059;28;20025;-75
2021/05/22 03:09:47;;;;;;;0.88;0.52;;;11.50;77.80;;;;;;5054936;28;20058;-76
2021/05/22 03:12:21;;;;;;;0.52;0.45;;;11.50;77.80;;;;;;5054754;28;20036;-76
2021/05/22 03:14:47;;;;;;;0.45;0.45;;;11.50;77.80;;;;;;5054902;28;20020;-75
2021/05/22 03:17:12;;;;;;;0.30;0.30;;;11.50;77.90;;;;;;5054317;28;20492;-75
2021/05/22 03:19:38;;;;;;;1.52;0.50;;;11.40;78.00;;;;;;5054714;28;20063;-77
2021/05/22 03:22:03;;;;;;;0.70;0.55;;;11.40;78.00;;;;;;5054371;28;20040;-76
2021/05/22 03:24:29;;;;;;;0.73;0.55;;;11.40;78.00;;;;;;5054539;28;20017;-77
2021/05/22 03:26:55;;;;;;;2.92;0.50;;;11.40;78.00;;;;;;5054530;28;20025;-75
2021/05/22 03:29:20;;;;;;;0.22;0.22;;;11.50;78.10;;;;;;5054356;28;20021;-76
2021/05/22 03:31:46;;;;;;;1.63;0.40;;;11.50;78.00;;;;;;5053983;28;20078;-76
2021/05/22 03:34:12;;;;;;;0.88;0.63;;;11.40;78.00;;;;;;5054327;28;20040;-74
2021/05/22 03:36:37;;;;;;;0.52;0.52;;;11.50;77.90;;;;;;5054234;28;20048;-77
2021/05/22 03:39:04;;;;;;;0.85;0.43;;;11.50;77.90;;;;;;5035702;28;20032;-77
2021/05/22 03:41:29;;;;;;;0.60;0.60;;;11.50;77.90;;;;;;5053963;28;20528;-76
2021/05/22 03:43:55;;;;;;;1.02;0.70;;;11.50;77.80;;;;;;5054282;28;20075;-78
2021/05/22 03:46:21;;;;;;;0.73;0.55;;;11.60;77.80;;;;;;5053849;28;20025;-78
2021/05/22 03:48:46;;;;;;;1.25;0.50;;;11.60;77.80;;;;;;5054155;28;20013;-74
2021/05/22 03:51:12;;;;;;;0.60;0.45;;;11.60;77.80;;;;;;5054308;28;20377;-76
2021/05/22 03:53:38;;;;;;;0.35;0.35;;;11.60;77.80;;;;;;5053875;28;20417;-75
2021/05/22 03:56:04;;;;;;;0.60;0.57;;;11.60;77.80;;;;;;5053966;28;20377;-75
2021/05/22 03:58:29;;;;;;;0.40;0.40;;;11.60;77.70;;;;;;5053992;28;20029;-76
2021/05/22 04:00:55;;;;;;;2.13;1.00;;;11.60;77.70;;;;;;5053359;28;20071;-76
2021/05/22 04:03:21;;;;;;;0.95;0.68;;;11.60;77.60;;;;;;5053805;28;20025;-75
2021/05/22 04:05:47;;;;;;;0.30;0.30;;;11.70;77.70;;;;;;5053848;28;20043;-76
2021/05/22 04:08:12;;;;;;;0.90;0.40;;;11.60;77.70;;;;;;5035874;28;20362;-76
2021/05/22 04:10:38;;;;;;;0.63;0.60;;;11.70;77.80;;;;;;5053779;28;20116;-75
2021/05/22 04:13:03;;;;;;;1.05;0.47;;;11.60;77.80;;;;;;5053753;28;20477;-76
2021/05/22 04:15:29;;;;;;;0.40;0.40;;;11.60;77.80;;;;;;5053206;28;20353;-76
2021/05/22 04:17:54;;;;;;;1.08;0.55;;;11.70;77.80;;;;;;5053621;28;20025;-77
2021/05/22 04:20:20;;;;;;;0.47;0.47;;;11.70;77.80;;;;;;5053587;28;20029;-75
2021/05/22 04:22:45;;;;;;;1.00;0.60;;;11.70;77.80;;;;;;5053554;28;20021;-78
2021/05/22 04:25:14;;;;;;;0.63;0.40;;;11.70;77.80;;;;;;5053520;28;20385;-76
2021/05/22 04:27:40;;;;;;;1.37;0.80;;;11.70;77.80;;;;;;5053469;28;20520;-74
2021/05/22 04:30:06;;;;;;;0.98;0.57;;;11.70;77.80;;;;;;5053043;28;20109;-76
2021/05/22 04:32:32;;;;;;;0.52;0.45;;;11.60;77.80;;;;;;5053426;28;20017;-76
2021/05/22 04:34:57;;;;;;;0.95;0.70;;;11.60;77.90;;;;;;5052578;28;20484;-76
2021/05/22 04:37:23;;;;;;;0.40;0.40;;;11.60;78.10;;;;;;5053329;28;20145;-77
2021/05/22 04:39:49;;;;;;;0.57;0.57;;;11.50;78.30;;;;;;5053277;28;20533;-76
2021/05/22 04:42:15;;;;;;;1.20;0.68;;;11.40;78.60;;;;;;5053269;28;20060;-76
2021/05/22 04:44:40;;;;;;;0.70;0.40;;;11.40;78.70;;;;;;5052784;28;20053;-77
2021/05/22 04:47:06;;;;;;;0.90;0.55;;;11.30;78.80;;;;;;5053354;28;20020;-77
2021/05/22 04:49:31;;;;;;;0.98;0.60;;;11.20;78.90;;;;;;5053202;28;20029;-78
2021/05/22 04:51:59;;;;;;;0.60;0.60;;;11.20;79.10;;;;;;5035125;28;20025;-77
2021/05/22 04:54:25;;;;;;;2.72;0.85;;;11.10;79.30;;;;;;5053359;28;20032;-77
2021/05/22 04:56:51;;;;;;;0.90;0.90;;;11.00;79.60;;;;;;5053030;28;20025;-77
2021/05/22 04:59:16;;;;;;;1.33;0.80;;;10.90;79.90;;;;;;5052674;28;20024;-78
2021/05/22 05:01:42;;;;;;;0.98;0.68;;;10.70;80.20;;;;;;5053005;28;20040;-77
2021/05/22 05:04:08;;;;;;;0.52;0.52;;;10.70;80.60;;;;;;5035124;28;20036;-76
2021/05/22 05:06:34;;;;;;;1.02;0.50;;;10.60;80.80;;;;;;5053139;28;20040;-78
2021/05/22 05:08:59;;;;;;;0.50;0.50;;;10.50;80.90;;;;;;5035206;28;20025;-77
2021/05/22 05:11:25;;;;;;;0.65;0.60;;;10.50;81.00;;;;;;5053080;28;20025;-75
2021/05/22 05:13:51;;;;;;;1.15;0.70;;;10.40;81.10;;;;;;5052344;28;20104;-78
2021/05/22 05:16:16;;;;;;;0.80;0.60;;;10.40;81.20;;;;;;5052813;28;20111;-78
2021/05/22 05:18:42;;;;;;;0.98;0.70;;;10.30;81.30;;;;;;5052849;28;20017;-77
2021/05/22 05:21:08;;;;;;;0.82;0.68;;;10.40;81.40;;;;;;5052618;28;20032;-77
2021/05/22 05:23:37;;;;;;;1.30;0.50;;;10.30;81.40;;;;;;5052759;28;20021;-76
2021/05/22 05:26:04;;;;;;;0.60;0.60;;;10.30;81.50;;;;;;5052715;28;20025;-77
2021/05/22 05:28:29;;;;;;;1.70;1.00;;;10.30;81.50;;;;;;5052008;28;20049;-79
2021/05/22 05:30:55;;;;;;;1.05;0.70;;;10.30;81.70;;;;;;5052636;28;20071;-80
2021/05/22 05:33:20;;;;;;;0.60;0.40;;;10.20;81.70;;;;;;5052654;28;20075;-77
2021/05/22 05:35:47;;;;;;;0.93;0.60;;;10.20;81.80;;;;;;5052475;28;20473;-75
2021/05/22 05:38:13;;;;;;;0.70;0.70;;;10.30;82.00;;;;;;5052483;28;20049;-77
2021/05/22 05:40:39;;;;;;;1.48;0.95;;;10.20;82.00;;;;;;5027755;28;20137;-76
2021/05/22 05:43:09;;;;;;;1.27;0.80;;;10.10;82.20;;;;;;5032070;28;20470;-78
2021/05/22 05:45:34;;;;;;;1.08;0.75;;;10.10;82.40;;;;;;5032999;28;20029;-78
2021/05/22 05:48:00;;;;;;;1.08;0.73;;;10.10;82.50;;;;;;5036461;28;20036;-77
2021/05/22 05:50:26;;;;;;;1.63;1.00;;;10.00;82.60;;;;;;5036166;28;20401;-76
2021/05/22 05:52:51;;;;;;;0.70;0.70;;;10.00;82.80;;;;;;5036458;28;20369;-76
2021/05/22 05:55:17;;;;;;;1.60;1.15;;;10.00;83.10;;;;;;5036388;28;20021;-77
2021/05/22 05:57:43;;;;;;;2.03;0.65;;;9.90;83.10;;;;;;5035778;28;20461;-74
2021/05/22 06:00:09;;;;;;;1.17;0.77;;;9.90;83.20;;;;;;5034778;28;20024;-76
2021/05/22 06:02:35;;;;;;;1.88;0.80;;;9.90;83.20;;;;;;5036076;28;20433;-76
2021/05/22 06:05:01;;;;;;;1.25;0.80;;;9.90;83.30;;;;;;5036263;28;20026;-76
2021/05/22 06:07:26;;;;;;;1.38;0.70;;;9.90;83.60;;;;;;5018400;28;20029;-75
2021/05/22 06:09:51;;;;;;;1.00;0.68;;;10.00;83.50;;;;;;5036046;28;20022;-79
2021/05/22 06:12:17;;;;;;;1.08;0.55;;;9.90;83.50;;;;;;5035540;28;20025;-76
2021/05/22 06:14:48;;;;;;;0.47;0.47;;;9.90;83.60;;;;;;5035879;28;20030;-77
2021/05/22 06:17:14;;;;;;;1.15;0.60;;;9.90;83.80;;;;;;5035971;28;20032;-76
2021/05/22 06:19:39;;;;;;;0.55;0.55;;;9.90;83.90;;;;;;5035923;28;20455;-77
2021/05/22 06:22:05;;;;;;;3.67;1.52;;;10.00;84.00;;;;;;5035545;28;20470;-75
2021/05/22 06:24:31;;;;;;;1.15;0.77;;;9.90;84.10;;;;;;5035779;28;20024;-76
2021/05/22 06:26:57;;;;;;;2.72;1.20;;;10.00;84.30;;;;;;5035310;28;20405;-77
2021/05/22 06:29:23;;;;;;;1.50;1.08;;;9.90;84.40;;;;;;5035747;28;20053;-76
2021/05/22 06:31:49;;;;;;;0.80;0.80;;;9.90;84.60;;;;;;5035656;28;20060;-76
2021/05/22 06:34:15;;;;;;;1.27;0.80;;;9.90;84.70;;;;;;5035701;28;20017;-77
2021/05/22 06:36:40;;;;;;;1.00;0.90;;;9.90;84.80;;;;;;5035303;28;20052;-76
2021/05/22 06:39:06;;;;;;;0.65;0.65;;;10.00;85.00;;;;;;5035454;28;20013;-76
2021/05/22 06:41:32;;;;;;;1.23;0.80;;;9.90;85.30;;;;;;5034979;28;20038;-74
2021/05/22 06:43:58;;;;;;;1.08;0.88;;;9.90;85.50;;;;;;5035378;28;20492;-77
2021/05/22 06:48:49;;;;;;;0.73;0.70;;;9.90;85.90;;;;;;5035426;28;20067;-77
2021/05/22 06:51:14;;;;;;;1.70;1.10;;;9.90;86.00;;;;;;5035118;28;20048;-75
2021/05/22 06:53:40;;;;;;;0.63;0.60;;;9.90;86.10;;;;;;5035284;28;20033;-78
2021/05/22 06:56:06;;;;;;;2.22;0.80;;;9.90;86.30;;;;;;5034831;28;20022;-77
2021/05/22 06:58:31;;;;;;;1.20;1.10;;;9.90;86.30;;;;;;5034275;28;20025;-76
2021/05/22 07:00:57;;;;;;;0.40;0.40;;;10.00;86.40;;;;;;5033960;28;20041;-79
2021/05/22 07:03:23;;;;;;;1.08;0.98;;;9.90;86.40;;;;;;5034976;28;20017;-75
2021/05/22 07:05:49;;;;;;;0.73;0.60;;;10.00;86.50;;;;;;5034977;28;20068;-74
2021/05/22 07:08:16;;;;;;;0.63;0.63;;;10.00;86.50;;;;;;5034044;28;20041;-76
2021/05/22 07:10:42;;;;;;;0.40;0.40;;;10.00;86.50;;;;;;5034459;28;20080;-76
2021/05/22 07:13:07;;;;;;;0.60;0.60;;;10.10;86.80;;;;;;5034924;28;20029;-76
2021/05/22 07:15:33;;;;;;;0.68;0.63;;;10.10;86.70;;;;;;5034984;28;20026;-76
2021/05/22 07:17:58;;;;;;;2.97;0.57;;;10.10;86.80;;;;;;5034965;28;20060;-79
2021/05/22 07:20:24;;;;;;;0.77;0.65;;;10.10;86.80;;;;;;5034754;28;20037;-77
2021/05/22 07:22:51;;;;;;;0.65;0.65;;;10.10;86.90;;;;;;5034217;28;20029;-76
2021/05/22 07:25:18;;;;;;;0.70;0.70;;;10.10;87.10;;;;;;5034615;28;20025;-77
2021/05/22 07:27:44;;;;;;;1.63;0.80;;;10.10;87.20;;;;;;5034464;28;20029;-77
2021/05/22 07:30:14;;;;;;;0.60;0.60;;;10.20;87.30;;;;;;5034706;28;20029;-75
2021/05/22 07:32:40;;;;;;;0.55;0.55;;;10.20;87.30;;;;;;5034486;28;20025;-75
2021/05/22 07:35:07;;;;;;;1.27;0.88;;;10.20;87.30;;;;;;5034517;28;20108;-76
2021/05/22 07:37:34;;;;;;;0.80;0.80;;;10.30;87.30;;;;;;5044109;28;20120;-77
2021/05/22 07:39:59;;;;;;;1.00;0.70;;;10.30;87.40;;;;;;5053986;28;20025;-80
2021/05/22 07:42:26;;;;;;;0.80;0.80;;;10.20;87.60;;;;;;5036390;28;20087;-78
2021/05/22 07:44:52;;;;;;;2.15;1.65;;;10.20;87.70;;;;;;5054284;28;20023;-79
2021/05/22 07:47:18;;;;;;;0.88;0.70;;;10.20;87.80;;;;;;5054194;28;20103;-77
2021/05/22 07:49:44;;;;;;;1.65;0.90;;;10.30;87.90;;;;;;5054121;28;20469;-78
2021/05/22 07:52:11;;;;;;;1.05;0.70;;;10.30;87.90;;;;;;5035650;28;20056;-78
2021/05/22 07:54:43;;;;;;;0.85;0.50;;;10.30;87.90;;;;;;5034822;28;20481;-78
2021/05/22 07:57:10;;;;;;;0.50;0.50;;;10.30;87.90;;;;;;5054230;28;20037;-77
2021/05/22 07:59:36;;;;;;;1.77;1.67;;;10.30;87.90;;;;;;5053865;28;20049;-77
2021/05/22 08:02:03;;;;;;;1.45;1.00;;;10.40;87.90;;;;;;5053759;28;20025;-74
2021/05/22 08:04:29;;;;;;;1.25;0.65;;;10.40;87.90;;;;;;5035949;28;20064;-77
2021/05/22 08:06:54;;;;;;;0.68;0.63;;;10.50;88.00;;;;;;5053319;28;20489;-78
2021/05/22 08:09:20;;;;;;;0.60;0.60;;;10.40;87.90;;;;;;5035577;28;20013;-76
2021/05/22 08:11:45;;;;;;;0.68;0.68;;;10.50;88.10;;;;;;5053566;28;20389;-78
2021/05/22 08:14:11;;;;;;;0.60;0.60;;;10.50;88.10;;;;;;5053723;28;20025;-78
2021/05/22 08:16:38;;;;;;;0.63;0.63;;;10.50;88.70;;;;;;5053566;28;20035;-78
2021/05/22 08:19:04;;;;;;;1.08;0.98;;;10.50;88.20;;;;;;5035737;28;20111;-79
2021/05/22 08:21:30;;;;;;;2.38;0.88;;;10.50;88.30;;;;;;5035107;28;20477;-78
2021/05/22 08:23:55;;;;;;;0.80;0.60;;;10.50;88.40;;;;;;5035112;28;20021;-78
2021/05/22 08:26:22;;;;;;;0.98;0.68;;;10.60;88.50;;;;;;5035338;28;20025;-77
2021/05/22 08:28:48;;;;;;;0.40;0.40;;;10.60;88.50;;;;;;5053476;28;20040;-78
2021/05/22 08:31:14;;;;;;;1.13;1.02;;;10.60;88.60;;;;;;5035594;28;20147;-80
2021/05/22 08:33:39;;;;;;;0.68;0.68;;;10.60;88.70;;;;;;5050851;28;20525;-79
2021/05/22 08:36:07;;;;;;;0.55;0.55;;;10.60;88.70;;;;;;5052438;28;20120;-78
2021/05/22 08:38:32;;;;;;;0.75;0.55;;;10.60;88.70;;;;;;5053469;28;20360;-77
2021/05/22 08:41:00;;;;;;;1.27;0.30;;;10.70;88.70;;;;;;5052951;28;20025;-79
2021/05/22 08:43:26;;;;;;;1.10;1.00;;;10.70;88.70;;;;;;5053244;28;20021;-78
2021/05/22 08:45:53;;;;;;;2.17;1.08;;;10.70;88.70;;;;;;5052686;28;20036;-78
2021/05/22 08:48:20;;;;;;;1.17;1.08;;;10.70;88.80;;;;;;5035470;28;20071;-79
2021/05/22 08:50:46;;;;;;;0.70;0.70;;;10.60;88.90;;;;;;5052802;28;20029;-77
2021/05/22 08:53:12;;;;;;;0.45;0.45;;;10.70;89.10;;;;;;5035376;28;20544;-79
2021/05/22 08:55:38;;;;;;;0.95;0.93;;;10.70;89.10;;;;;;5035109;28;20151;-79
2021/05/22 08:58:03;;;;;;;1.35;1.27;;;10.60;89.10;;;;;;5053011;28;20036;-79
2021/05/22 09:00:31;;;;;;;3.35;1.30;;;10.70;89.10;;;;;;5052303;28;20041;-80
2021/05/22 09:02:57;;;;;;;0.85;0.85;;;10.70;89.20;;;;;;5053110;28;20009;-77
2021/05/22 09:05:26;;;;;;;1.05;0.90;;;10.70;89.20;;;;;;5052591;28;20028;-76
2021/05/22 09:07:56;;;;;;;0.80;0.80;;;10.70;90.00;;;;;;5032513;28;20032;-78
2021/05/22 09:10:33;;;;;;;0.77;0.77;;;10.70;89.40;;;;;;5033836;28;20033;-79
2021/05/22 09:13:10;;;;;;;0.90;0.90;;;10.70;89.40;;;;;;5053091;28;20033;-80
2021/05/22 09:15:38;;;;;;;0.63;0.60;;;10.70;89.50;;;;;;5053057;28;20025;-80
2021/05/22 09:18:05;;;;;;;0.57;0.57;;;10.70;89.50;;;;;;5050278;28;20029;-80
2021/05/22 09:20:42;;;;;;;1.00;0.93;;;10.80;89.50;;;;;;5052627;28;20095;-79
2021/05/22 09:23:11;;;;;;;0.85;0.85;;;10.90;89.40;;;;;;5056837;28;20040;-79
2021/05/22 09:25:40;;;;;;;1.03;0.80;;;11.00;89.30;;;;;;5057045;28;20019;-86
2021/05/22 09:28:07;;;;;;;0.88;0.88;;;10.90;89.20;;;;;;5058185;28;20017;-83
2021/05/22 09:30:35;;;;;;;0.90;0.90;;;11.00;89.40;;;;;;5058043;28;20048;-80
2021/05/22 09:33:01;;;;;;;0.85;0.85;;;10.90;89.50;;;;;;5056695;28;20024;-83
2021/05/22 09:35:27;;;;;;;1.05;0.95;;;10.90;89.50;;;;;;5055727;28;20021;-84
2021/05/22 09:37:58;;;;;;;2.40;1.40;;;10.90;89.60;;;;;;5056987;28;20049;-78
2021/05/22 09:40:34;;;;;;;0.90;0.90;;;11.00;89.60;;;;;;5056637;28;20032;-78
2021/05/22 09:43:02;;;;;;;0.68;0.68;;;11.10;89.60;;;;;;5056343;28;20029;-80
2021/05/22 09:45:34;;;;;;;1.20;1.10;;;11.10;90.10;;;;;;5056504;28;20013;-79
2021/05/22 09:48:09;;;;;;;1.10;0.80;;;11.10;89.50;;;;;;5055889;28;20116;-79
2021/05/22 09:50:39;;;;;;;2.10;1.90;;;11.10;89.60;;;;;;5056380;28;20025;-80
2021/05/22 09:53:23;;;;;;;0.80;0.68;;;11.20;89.80;;;;;;5055557;28;20044;-80
2021/05/22 09:56:21;;;;;;;1.27;1.05;;;11.20;89.90;;;;;;5056297;28;20103;-79
2021/05/22 09:58:50;;;;;;;0.90;0.88;;;11.20;90.00;;;;;;5056261;28;20029;-78
2021/05/22 10:01:17;;;;;;;2.28;1.40;;;11.20;90.20;;;;;;5052160;28;20501;-80
2021/05/22 10:03:43;;;;;;;1.48;1.20;;;11.20;90.50;;;;;;5017824;28;20021;-79
2021/05/22 10:06:09;;;;;;;1.25;1.15;;;11.10;90.80;;;;;;5036045;28;20037;-75
2021/05/22 10:08:35;;;;;;;1.15;1.05;;;11.10;91.20;;;;;;5035931;28;20072;-78
2021/05/22 10:11:01;;;;;;;1.63;1.17;;;11.10;91.50;;;;;;5036112;28;20025;-80
2021/05/22 10:13:27;;;;;;;2.65;1.92;;;11.10;91.90;;;;;;5036146;28;20032;-79
2021/05/22 10:15:59;;;;;;;1.40;1.30;;;11.10;92.30;;;;;;5035990;28;20036;-81
2021/05/22 10:18:26;;;;;;;1.75;1.63;;;11.20;92.60;;;;;;5035579;28;20130;-79
2021/05/22 10:20:55;;;;;;;2.67;1.42;;;11.10;92.90;;;;;;5035843;28;20033;-76
2021/05/22 10:23:20;;;;;;;2.00;1.80;;;11.20;93.20;;;;;;5035511;28;20032;-79
2021/05/22 10:25:48;;;;;;;2.05;1.58;;;11.30;93.20;;;;;;5035814;28;20022;-78
2021/05/22 10:28:14;;;;;;;3.15;1.70;;;11.30;93.50;;;;;;5035753;28;20021;-80
2021/05/22 10:30:40;;;;;;;2.20;1.70;;;11.30;93.60;;;;;;5035712;28;20018;-76
2021/05/22 10:33:10;;;;;;;2.20;1.40;;;11.30;93.70;;;;;;5052245;28;20025;-79
2021/05/22 10:35:46;;;;;;;1.90;1.50;;;11.30;93.80;;;;;;5055627;28;20057;-78
2021/05/22 10:38:32;;;;;;;1.70;1.42;;;11.20;94.00;;;;;;5037877;28;20495;-80
2021/05/22 10:41:05;;;;;;;2.35;1.77;;;11.20;94.00;;;;;;5055427;28;20485;-81
2021/05/22 10:43:58;;;;;;;1.92;1.60;;;11.20;94.20;;;;;;5037579;28;20370;-81
2021/05/22 10:46:24;;;;;;;2.28;1.90;;;11.20;94.30;;;;;;5054910;28;20098;-79
2021/05/22 10:48:57;;;;;;;1.60;1.50;;;11.20;94.50;;;;;;5054657;28;20025;-80
2021/05/22 10:51:34;;;;;;;2.88;2.05;;;11.30;94.50;;;;;;5055393;28;20540;-80
2021/05/22 10:54:03;;;;;;;2.00;1.70;;;11.30;94.50;;;;;;5037338;28;20535;-78
2021/05/22 10:56:28;;;;;;;3.13;2.47;;;11.30;94.60;;;;;;5054983;28;20025;-77
2021/05/22 10:58:57;;;;;;;2.70;2.13;;;11.40;94.50;;;;;;5055278;28;20043;-81
2021/05/22 11:01:26;;;;;;;2.30;1.67;;;11.30;94.50;;;;;;5054520;28;20033;-80
2021/05/22 11:04:07;;;;;;;3.08;1.98;;;11.40;94.60;;;;;;5055189;28;20017;-81
2021/05/22 11:06:42;;;;;;;3.00;2.17;;;11.40;94.60;;;;;;5053533;28;20029;-79
2021/05/22 11:09:26;;;;;;;2.60;1.88;;;11.40;94.70;;;;;;5055255;28;20104;-77
2021/05/22 11:12:03;;;;;;;4.32;3.00;;;11.50;94.70;;;;;;5037219;28;20025;-76
2021/05/22 11:14:37;;;;;;;3.05;2.20;;;11.50;94.80;;;;;;5055021;28;20013;-82
2021/05/22 11:17:26;;;;;;;3.05;2.30;;;11.60;94.70;;;;;;5054703;28;20029;-82
2021/05/22 11:20:04;;;;;;;2.47;1.90;;;11.60;94.70;;;;;;5006165;28;20108;-81
2021/05/22 11:22:32;;;;;;;2.97;2.42;;;11.70;94.80;;;;;;5054769;28;20041;-80
2021/05/22 11:25:05;;;;;;;3.38;2.38;;;11.70;94.80;;;;;;5053478;28;20070;-80
2021/05/22 11:27:51;;;;;;;3.50;2.15;;;11.70;94.80;;;;;;5074109;28;20035;-79
2021/05/22 11:30:20;;;;;;;2.35;1.70;;;11.70;94.80;;;;;;5064933;28;20021;-80
2021/05/22 11:32:51;;;;;;;3.38;2.30;;;11.70;94.90;;;;;;5054467;28;20048;-78
2021/05/22 11:35:32;;;;;;;2.03;1.50;;;11.70;95.20;;;;;;5054383;28;20078;-80
2021/05/22 11:38:13;;;;;;;2.72;2.10;;;11.70;94.90;;;;;;5054441;28;20045;-76
2021/05/22 11:40:38;;;;;;;2.65;1.77;;;11.60;95.00;;;;;;5036408;28;20044;-78
2021/05/22 11:43:16;;;;;;;2.30;1.60;;;11.60;95.20;;;;;;5054250;28;20021;-78
2021/05/22 11:45:43;;;;;;;1.48;1.10;;;11.60;95.20;;;;;;5053695;28;20048;-78
2021/05/22 11:48:25;;;;;;;1.25;1.15;;;11.60;95.20;;;;;;5054252;28;20311;-77
2021/05/22 11:50:52;;;;;;;1.55;1.23;;;11.60;95.20;;;;;;5054090;28;20540;-77
2021/05/22 11:53:18;;;;;;;0.95;0.93;;;11.60;95.20;;;;;;5054292;28;20024;-78
2021/05/22 11:55:53;;;;;;;0.77;0.77;;;11.70;95.30;;;;;;5053190;28;20029;-78
2021/05/22 11:58:22;;;;;;;1.35;0.85;;;11.80;95.20;;;;;;5053746;28;20096;-79
2021/05/22 12:00:48;;;;;;;1.05;0.95;;;12.00;95.20;;;;;;5054111;28;20124;-77
2021/05/22 12:03:23;;;;;;;1.75;1.15;;;12.10;95.20;;;;;;5053865;28;20429;-78
2021/05/22 12:05:50;;;;;;;0.80;0.80;;;12.10;94.90;;;;;;5053866;28;20405;-77
2021/05/22 12:08:21;;;;;;;1.20;1.10;;;12.00;95.00;;;;;;5054223;28;20109;-79
2021/05/22 12:10:47;;;;;;;0.95;0.95;;;12.00;94.80;;;;;;5054007;28;20029;-78
2021/05/22 12:13:13;;;;;;;2.08;1.40;;;11.90;94.90;;;;;;5053676;28;20023;-78
2021/05/22 12:15:41;;;;;;;0.90;0.90;;;11.90;94.90;;;;;;5053787;28;20044;-78
2021/05/22 12:18:08;;;;;;;1.02;0.98;;;12.00;95.00;;;;;;5053637;28;20104;-78
2021/05/22 12:20:49;;;;;;;1.42;1.10;;;12.00;94.90;;;;;;5053393;28;20025;-78
2021/05/22 12:23:41;;;;;;;1.52;1.13;;;12.10;94.80;;;;;;5053697;28;20021;-79
2021/05/22 12:26:07;;;;;;;1.25;1.10;;;12.30;94.90;;;;;;5049438;28;20049;-78
2021/05/22 12:28:33;;;;;;;1.95;1.20;;;12.40;94.90;;;;;;5041883;28;20040;-79
2021/05/22 12:31:00;;;;;;;2.25;1.50;;;12.40;94.70;;;;;;5016876;28;20147;-79
2021/05/22 12:33:27;;;;;;;1.20;1.10;;;12.50;94.70;;;;;;5033711;28;20448;-79
2021/05/22 12:36:10;;;;;;;1.42;1.33;;;12.50;94.60;;;;;;5033371;28;20057;-78
2021/05/22 12:38:45;;;;;;;1.33;1.20;;;12.40;94.60;;;;;;5033606;28;20037;-78
2021/05/22 12:41:15;;;;;;;1.88;1.67;;;12.50;94.60;;;;;;5034528;28;20112;-76
2021/05/22 12:43:46;;;;;;;1.65;1.27;;;12.50;94.70;;;;;;5032792;28;20022;-78
2021/05/22 12:46:36;;;;;;;1.83;1.73;;;12.60;94.50;;;;;;5033450;28;20061;-79
2021/05/22 12:49:20;;;;;;;2.80;1.50;;;12.50;94.20;;;;;;5033692;28;20017;-77
2021/05/22 12:51:59;;;;;;;2.33;1.55;;;12.40;94.30;;;;;;5016073;28;20164;-77
2021/05/22 12:54:40;;;;;;;1.98;1.45;;;12.30;94.20;;;;;;5033822;28;20021;-78